Time;durP1;ratioP1;P1;durP2;ratioP2;P2;SDS_P1;SDS_P2;PMS_P1;PMS_P2;Temp;Humidity;BMP_temperature;BMP_pressure;BME280_temperature;BME280_humidity;BME280_pressure;Samples;Min_cycle;Max_cycle;Signal;HPM_P1;HPM_P2
2024/01/27 00:00:08;;;;;;;;;45.00;38.00;;;;;6.96;65.41;102974.56;5131252;27;45273;-82
2024/01/27 00:02:34;;;;;;;;;47.75;38.75;;;;;6.87;65.70;102947.25;5122546;27;45465;-80
2024/01/27 00:04:59;;;;;;;;;49.50;41.25;;;;;6.92;65.40;102969.31;5129370;27;45851;-81
2024/01/27 00:07:26;;;;;;;;;41.50;35.00;;;;;6.88;65.46;102964.88;5125930;27;45547;-81
2024/01/27 00:09:52;;;;;;;;;46.75;38.00;;;;;6.90;65.30;102974.59;5122337;27;46142;-82
2024/01/27 00:12:17;;;;;;;;;44.25;39.00;;;;;6.88;65.84;102963.13;5119652;27;45295;-79
2024/01/27 00:14:43;;;;;;;;;38.25;36.00;;;;;6.89;65.76;102970.19;5120294;27;45258;-82
2024/01/27 00:17:09;;;;;;;;;44.75;38.00;;;;;6.83;65.83;102956.97;5128362;27;45484;-81
2024/01/27 00:19:34;;;;;;;;;49.25;42.00;;;;;6.87;66.33;102971.06;5139637;27;45465;-83
2024/01/27 00:21:59;;;;;;;;;57.25;44.75;;;;;6.69;66.45;102953.50;5121118;27;53553;-81
2024/01/27 00:24:25;;;;;;;;;59.50;46.75;;;;;6.84;65.84;102977.25;5140547;27;45478;-81
2024/01/27 00:26:50;;;;;;;;;46.50;40.00;;;;;6.87;66.21;102987.81;5127470;27;45526;-81
2024/01/27 00:29:15;;;;;;;;;44.00;40.00;;;;;6.74;66.13;102957.00;5118779;27;64353;-80
2024/01/27 00:31:40;;;;;;;;;50.25;38.00;;;;;6.89;65.88;102983.41;5137055;27;45245;-80
2024/01/27 00:34:06;;;;;;;;;42.75;38.25;;;;;6.80;66.75;102978.16;5131006;27;45244;-80
2024/01/27 00:36:31;;;;;;;;;42.75;38.00;;;;;6.90;66.14;102997.50;5119053;27;45318;-80
2024/01/27 00:38:56;;;;;;;;;63.75;47.50;;;;;6.93;66.62;102982.53;5118381;27;56019;-80
2024/01/27 00:41:22;;;;;;;;;45.25;40.00;;;;;6.83;66.03;102966.69;5118500;27;45325;-80
2024/01/27 00:43:48;;;;;;;;;42.75;33.75;;;;;6.89;66.64;102980.75;5120202;27;45250;-80
2024/01/27 00:46:14;;;;;;;;;45.50;36.50;;;;;6.88;66.29;102975.47;5120300;27;45578;-80
2024/01/27 00:48:42;;;;;;;;;44.00;34.50;;;;;6.89;66.55;102978.09;5120816;27;46574;-81
2024/01/27 00:51:08;;;;;;;;;44.00;39.00;;;;;6.74;66.45;102967.56;5132135;27;45273;-81
2024/01/27 00:53:33;;;;;;;;;43.00;36.75;;;;;6.82;66.44;102983.44;5120769;27;51188;-82
2024/01/27 00:55:59;;;;;;;;;43.50;37.75;;;;;6.81;66.91;102982.56;5140043;27;45445;-81
2024/01/27 00:58:24;;;;;;;;;37.00;34.75;;;;;6.72;67.15;102970.22;5139494;27;45420;-80
2024/01/27 01:00:49;;;;;;;;;44.00;38.25;;;;;6.73;67.64;102968.47;5144455;27;45297;-81
2024/01/27 01:03:15;;;;;;;;;54.75;39.75;;;;;6.73;67.08;102977.28;5128981;27;45728;-80
2024/01/27 01:05:40;;;;;;;;;44.25;39.75;;;;;6.74;67.13;102978.16;5118807;27;45613;-80
2024/01/27 01:08:06;;;;;;;;;49.25;39.25;;;;;6.74;67.82;102975.50;5118431;27;64202;-81
2024/01/27 01:10:32;;;;;;;;;52.25;35.00;;;;;6.72;67.94;102972.00;5118565;27;45384;-80
2024/01/27 01:12:57;;;;;;;;;56.25;43.25;;;;;6.75;68.03;102969.34;5118612;27;45296;-80
2024/01/27 01:15:22;;;;;;;;;55.25;41.75;;;;;6.74;67.89;102970.22;5119130;27;45619;-79
2024/01/27 01:17:48;;;;;;;;;48.25;41.00;;;;;6.72;68.02;102956.13;5100384;27;46178;-81
2024/01/27 01:20:13;;;;;;;;;39.50;38.25;;;;;6.70;67.79;102956.13;5117445;27;45318;-80
2024/01/27 01:22:39;;;;;;;;;47.75;43.25;;;;;6.68;67.90;102954.38;5118864;27;45165;-80
2024/01/27 01:25:04;;;;;;;;;53.00;44.25;;;;;6.65;68.21;102951.75;5120012;27;45906;-82
2024/01/27 01:27:30;;;;;;;;;60.75;46.25;;;;;6.67;68.10;102952.63;5119913;27;45423;-79
2024/01/27 01:29:55;;;;;;;;;53.25;41.75;;;;;6.63;68.98;102951.72;5125507;27;45600;-80
2024/01/27 01:32:21;;;;;;;;;56.75;44.50;;;;;6.54;69.10;102940.31;5142864;27;45388;-81
2024/01/27 01:34:46;;;;;;;;;64.00;49.00;;;;;6.60;69.54;102962.31;5142642;27;53182;-80
2024/01/27 01:37:13;;;;;;;;;61.50;50.25;;;;;6.55;69.26;102950.00;5141728;27;46037;-79
2024/01/27 01:39:38;;;;;;;;;57.25;48.25;;;;;6.57;69.02;102945.59;5139004;27;45433;-80
2024/01/27 01:42:04;;;;;;;;;62.25;48.00;;;;;6.46;69.22;102938.53;5116531;27;45373;-81
2024/01/27 01:44:31;;;;;;;;;57.00;43.50;;;;;6.51;69.47;102943.84;5099681;27;45397;-80
2024/01/27 01:46:57;;;;;;;;;65.00;51.50;;;;;6.33;70.30;102928.88;5099116;27;47602;-80
2024/01/27 01:49:22;;;;;;;;;56.75;47.50;;;;;6.45;69.72;102946.47;5118055;27;45362;-81
2024/01/27 01:51:48;;;;;;;;;66.50;47.25;;;;;6.40;70.15;102942.97;5117871;27;45267;-82
2024/01/27 01:54:13;;;;;;;;;60.50;49.00;;;;;6.38;70.77;102942.06;5116857;27;45249;-80
2024/01/27 01:56:39;;;;;;;;;64.25;52.25;;;;;6.34;70.66;102943.84;5117847;27;49207;-83
2024/01/27 01:59:04;;;;;;;;;58.50;50.50;;;;;6.37;70.83;102946.47;5118055;27;45416;-81
2024/01/27 02:01:29;;;;;;;;;69.00;54.75;;;;;6.35;71.02;102948.25;5117688;27;45307;-82
2024/01/27 02:03:56;;;;;;;;;62.50;51.25;;;;;6.32;71.47;102950.91;5135254;27;45478;-82
2024/01/27 02:06:22;;;;;;;;;60.25;49.50;;;;;6.22;71.26;102951.78;5138495;27;45481;-82
2024/01/27 02:08:47;;;;;;;;;61.75;50.75;;;;;6.21;71.72;102963.22;5138022;27;45427;-82
2024/01/27 02:11:12;;;;;;;;;53.25;46.75;;;;;6.24;71.92;102968.50;5138135;27;47943;-80
2024/01/27 02:13:38;;;;;;;;;64.25;50.00;;;;;6.28;71.62;102964.13;5138660;27;45626;-79
2024/01/27 02:16:03;;;;;;;;;63.75;51.75;;;;;6.24;71.73;102955.31;5129673;27;45886;-80
2024/01/27 02:18:29;;;;;;;;;65.00;53.50;;;;;6.25;71.33;102956.19;5117297;27;45335;-79
2024/01/27 02:20:54;;;;;;;;;61.25;51.50;;;;;6.22;72.20;102954.44;5117561;27;45354;-80
2024/01/27 02:23:20;;;;;;;;;58.75;46.25;;;;;6.23;71.86;102956.19;5117647;27;45393;-80
2024/01/27 02:25:45;;;;;;;;;59.50;50.00;;;;;6.11;71.42;102930.63;5117458;27;46293;-80
2024/01/27 02:28:12;;;;;;;;;63.25;53.00;;;;;6.16;71.65;102935.94;5116968;27;52031;-81
2024/01/27 02:30:37;;;;;;;;;64.00;51.25;;;;;6.13;72.37;102933.31;5099253;27;45287;-80
2024/01/27 02:33:03;;;;;;;;;74.75;57.00;;;;;6.07;72.16;102926.25;5121561;27;45443;-80
2024/01/27 02:35:29;;;;;;;;;66.75;51.25;;;;;6.14;71.84;102946.53;5120691;27;45996;-80
2024/01/27 02:37:54;;;;;;;;;66.75;53.25;;;;;6.12;72.25;102947.38;5120701;27;45373;-80
2024/01/27 02:40:20;;;;;;;;;69.25;54.75;;;;;6.11;71.58;102941.22;5120730;27;45531;-81
2024/01/27 02:42:46;;;;;;;;;68.00;53.50;;;;;6.01;71.49;102934.19;5120970;27;45496;-79
2024/01/27 02:45:12;;;;;;;;;62.00;49.75;;;;;6.04;71.96;102944.75;5120648;27;45365;-81
2024/01/27 02:47:38;;;;;;;;;55.00;44.75;;;;;6.10;71.20;102933.28;5120647;27;45460;-81
2024/01/27 02:50:03;;;;;;;;;57.25;45.00;;;;;6.11;70.58;102940.31;5121118;27;45490;-81
2024/01/27 02:52:29;;;;;;;;;54.25;41.50;;;;;5.88;70.78;102912.13;5120834;27;45495;-80
2024/01/27 02:54:55;;;;;;;;;57.50;41.00;;;;;5.94;70.73;102927.13;5120794;27;46115;-82
2024/01/27 02:57:20;;;;;;;;;60.00;45.75;;;;;5.95;71.13;102930.66;5120509;27;45359;-80
2024/01/27 02:59:46;;;;;;;;;52.00;45.50;;;;;5.85;71.78;102912.13;5120559;27;45330;-79
2024/01/27 03:02:12;;;;;;;;;51.50;41.50;;;;;5.93;70.76;102922.72;5121593;27;45619;-79
2024/01/27 03:04:37;;;;;;;;;53.25;44.75;;;;;5.83;70.61;102907.72;5141211;27;45945;-80
2024/01/27 03:07:02;;;;;;;;;48.75;40.75;;;;;5.85;71.47;102927.06;5132742;27;59532;-80
2024/01/27 03:09:28;;;;;;;;;47.75;42.00;;;;;5.87;70.97;102934.16;5121019;27;45274;-81
2024/01/27 03:11:53;;;;;;;;;45.75;39.00;;;;;5.84;70.93;102942.03;5121221;27;45574;-82
2024/01/27 03:14:18;;;;;;;;;46.25;39.75;;;;;5.63;71.67;102894.50;5120107;27;51094;-82
2024/01/27 03:16:44;;;;;;;;;41.50;35.75;;;;;5.76;71.38;102920.06;5120334;27;45254;-82
2024/01/27 03:19:10;;;;;;;;;51.50;41.25;;;;;5.75;70.95;102931.50;5120474;27;45414;-81
2024/01/27 03:21:35;;;;;;;;;45.50;40.25;;;;;5.66;71.26;102920.91;5121376;27;45313;-81
2024/01/27 03:24:01;;;;;;;;;43.75;38.25;;;;;5.70;71.20;102922.66;5120904;27;45829;-82
2024/01/27 03:26:26;;;;;;;;;45.50;37.00;;;;;5.61;71.13;102915.63;5120525;27;52474;-80
2024/01/27 03:28:51;;;;;;;;;36.25;33.00;;;;;5.63;71.10;102920.91;5121138;27;45354;-81
2024/01/27 03:31:17;;;;;;;;;50.00;44.50;;;;;5.48;71.15;102894.50;5120273;27;45819;-82
2024/01/27 03:33:42;;;;;;;;;36.50;32.50;;;;;5.56;71.34;102908.56;5121552;27;45381;-81
2024/01/27 03:36:14;;;;;;;;;28.00;25.00;;;;;5.61;71.54;102922.69;5124899;27;45366;-81
2024/01/27 03:38:42;;;;;;;;;46.00;41.75;;;;;5.57;71.52;102920.88;5126137;27;45322;-81
2024/01/27 03:41:08;;;;;;;;;49.75;40.75;;;;;5.55;70.90;102925.28;5127579;27;45434;-81
2024/01/27 03:43:33;;;;;;;;;52.25;43.25;;;;;5.49;71.52;102920.88;5125857;27;58427;-80
2024/01/27 03:45:59;;;;;;;;;38.50;34.25;;;;;5.44;71.96;102908.53;5127146;27;45289;-81
2024/01/27 03:48:24;;;;;;;;;39.75;36.25;;;;;5.49;71.45;102925.28;5105570;27;45315;-81
2024/01/27 03:50:50;;;;;;;;;39.25;32.50;;;;;5.39;71.66;102911.19;5122062;27;45428;-80
2024/01/27 03:53:15;;;;;;;;;46.00;38.25;;;;;5.44;71.36;102916.47;5104692;27;60528;-81
2024/01/27 03:55:41;;;;;;;;;37.50;30.25;;;;;5.43;70.44;102906.78;5120293;27;45345;-79
2024/01/27 03:58:06;;;;;;;;;42.25;33.50;;;;;5.41;70.37;102908.53;5106805;27;45446;-82
2024/01/27 04:00:33;;;;;;;;;41.25;37.00;;;;;5.35;70.93;102898.00;5120871;27;45524;-80
2024/01/27 04:02:59;;;;;;;;;33.25;32.00;;;;;5.38;71.77;102913.81;5120328;27;45507;-82
2024/01/27 04:05:25;;;;;;;;;36.50;32.25;;;;;5.41;70.64;102913.81;5119420;27;45348;-82
2024/01/27 04:07:51;;;;;;;;;43.75;35.50;;;;;5.31;71.74;102897.97;5119660;27;45397;-82
2024/01/27 04:10:17;;;;;;;;;40.75;34.00;;;;;5.38;71.19;102905.91;5119741;27;45513;-80
2024/01/27 04:12:43;;;;;;;;;36.50;31.50;;;;;5.41;71.19;102908.53;5119374;27;46368;-83
2024/01/27 04:15:09;;;;;;;;;38.25;36.50;;;;;5.39;71.33;102910.31;5119789;27;45436;-81
2024/01/27 04:17:35;;;;;;;;;31.00;29.50;;;;;5.40;71.56;102918.22;5119909;27;45392;-80
2024/01/27 04:20:00;;;;;;;;;33.25;33.25;;;;;5.41;72.08;102916.47;5101501;27;45570;-82
2024/01/27 04:22:25;;;;;;;;;38.50;33.00;;;;;5.37;71.15;102899.75;5119424;27;46096;-81
2024/01/27 04:24:51;;;;;;;;;42.00;34.75;;;;;5.42;71.19;102920.84;5118805;27;59661;-81
2024/01/27 04:27:16;;;;;;;;;41.75;36.00;;;;;5.37;71.71;102901.50;5119007;27;50242;-83
2024/01/27 04:29:41;;;;;;;;;41.25;33.75;;;;;5.39;72.26;102910.31;5119241;27;45623;-83
2024/01/27 04:32:07;;;;;;;;;36.75;36.75;;;;;5.30;71.70;102905.88;5119479;27;46152;-84
2024/01/27 04:34:32;;;;;;;;;39.25;32.00;;;;;5.38;71.35;102924.38;5119574;27;45214;-82
2024/01/27 04:36:58;;;;;;;;;44.25;38.00;;;;;5.39;71.32;102932.28;5119747;27;45319;-83
2024/01/27 04:39:23;;;;;;;;;45.75;38.50;;;;;5.36;71.43;102944.59;5119657;27;45341;-83
2024/01/27 04:41:49;;;;;;;;;44.50;41.00;;;;;5.23;72.82;102930.50;5100546;27;46086;-81
2024/01/27 04:44:14;;;;;;;;;43.50;38.00;;;;;5.21;73.06;102927.84;5119448;27;45420;-83
2024/01/27 04:46:39;;;;;;;;;48.25;41.75;;;;;5.23;72.87;102935.78;5119492;27;45629;-82
2024/01/27 04:49:05;;;;;;;;;47.75;39.50;;;;;5.20;72.87;102936.63;5120094;27;50201;-82
2024/01/27 04:51:30;;;;;;;;;48.00;43.00;;;;;5.14;73.26;102926.06;5119913;27;46237;-84
2024/01/27 04:53:55;;;;;;;;;56.75;45.25;;;;;5.25;73.47;102923.47;5117602;27;59733;-81
2024/01/27 04:56:21;;;;;;;;;50.25;42.75;;;;;5.32;72.10;102928.75;5119543;27;48931;-81
2024/01/27 04:58:46;;;;;;;;;41.50;37.25;;;;;5.39;73.03;102927.03;5119133;27;45426;-80
2024/01/27 05:01:11;;;;;;;;;58.00;46.00;;;;;5.39;72.41;102931.41;5118374;27;45341;-80
2024/01/27 05:03:37;;;;;;;;;54.75;46.50;;;;;5.23;72.64;102915.53;5132999;27;45410;-81
2024/01/27 05:06:03;;;;;;;;;53.25;44.50;;;;;5.08;72.72;102894.41;5131213;27;45462;-79
2024/01/27 05:08:28;;;;;;;;;50.75;42.50;;;;;5.23;73.06;102936.66;5118621;27;45408;-81
2024/01/27 05:10:54;;;;;;;;;64.00;48.50;;;;;5.16;74.05;102936.59;5118231;27;46188;-80
2024/01/27 05:13:19;;;;;;;;;60.50;47.25;;;;;5.14;73.34;102935.72;5118840;27;45413;-82
2024/01/27 05:15:45;;;;;;;;;52.75;44.75;;;;;5.06;73.35;102926.88;5118601;27;45508;-82
2024/01/27 05:18:10;;;;;;;;;59.25;50.50;;;;;5.03;73.35;102948.88;5118584;27;45598;-81
2024/01/27 05:20:36;;;;;;;;;57.50;47.50;;;;;4.98;73.22;102946.22;5118107;27;45355;-80
2024/01/27 05:23:01;;;;;;;;;55.25;46.25;;;;;5.01;74.04;102950.63;5118940;27;45390;-80
2024/01/27 05:25:26;;;;;;;;;48.50;44.00;;;;;4.90;73.99;102941.78;5118434;27;45216;-80
2024/01/27 05:27:51;;;;;;;;;62.25;50.75;;;;;4.97;73.88;102957.63;5118387;27;45550;-81
2024/01/27 05:30:17;;;;;;;;;64.00;48.50;;;;;4.88;74.69;102943.53;5117254;27;65698;-81
2024/01/27 05:32:42;;;;;;;;;61.75;48.25;;;;;4.94;74.56;102948.81;5099890;27;45376;-81
2024/01/27 05:35:09;;;;;;;;;62.25;49.75;;;;;4.92;74.08;102942.66;5119153;27;45498;-78
2024/01/27 05:37:35;;;;;;;;;63.75;48.00;;;;;4.88;74.59;102935.63;5119440;27;45243;-82
2024/01/27 05:40:00;;;;;;;;;64.50;52.50;;;;;4.87;74.76;102947.91;5119325;27;45364;-82
2024/01/27 05:42:25;;;;;;;;;62.00;49.25;;;;;4.86;74.80;102947.91;5118744;27;45386;-81
2024/01/27 05:44:50;;;;;;;;;79.75;57.25;;;;;4.81;74.96;102931.16;5117625;27;59748;-81
2024/01/27 05:47:16;;;;;;;;;74.25;56.00;;;;;4.86;74.21;102938.25;5117873;27;45601;-81
2024/01/27 05:49:41;;;;;;;;;56.50;45.50;;;;;4.77;75.04;102934.66;5118278;27;46051;-80
2024/01/27 05:52:07;;;;;;;;;70.00;53.50;;;;;4.81;74.85;102937.31;5117757;27;48416;-79
2024/01/27 05:54:33;;;;;;;;;61.75;48.00;;;;;4.83;74.68;102940.00;5117646;27;45326;-79
2024/01/27 05:56:58;;;;;;;;;61.50;47.50;;;;;4.68;74.36;102920.56;5118479;27;45510;-78
2024/01/27 05:59:23;;;;;;;;;62.75;51.75;;;;;4.69;74.28;102925.00;5117509;27;45568;-80
2024/01/27 06:01:49;;;;;;;;;65.50;54.00;;;;;4.81;74.85;102931.16;5117284;27;45360;-79
2024/01/27 06:04:14;;;;;;;;;67.75;54.00;;;;;4.76;74.27;102927.63;5135756;27;53581;-80
2024/01/27 06:06:40;;;;;;;;;66.50;50.75;;;;;4.67;74.88;102917.91;5138194;27;45535;-79
2024/01/27 06:09:05;;;;;;;;;70.00;57.50;;;;;4.83;75.15;102927.69;5138482;27;45400;-80
2024/01/27 06:11:31;;;;;;;;;67.75;53.00;;;;;4.86;75.57;102924.19;5119421;27;45475;-81
2024/01/27 06:13:58;;;;;;;;;63.50;51.50;;;;;4.87;74.67;102937.38;5131025;27;45390;-81
2024/01/27 06:16:23;;;;;;;;;67.50;52.25;;;;;4.87;74.58;102939.13;5099354;27;45510;-80
2024/01/27 06:18:49;;;;;;;;;64.75;49.50;;;;;4.86;74.60;102940.88;5117263;27;45739;-81
2024/01/27 06:21:14;;;;;;;;;65.00;53.50;;;;;4.77;74.30;102935.56;5117295;27;45341;-80
2024/01/27 06:23:40;;;;;;;;;62.25;51.25;;;;;4.82;74.46;102943.47;5117500;27;45280;-81
2024/01/27 06:26:09;;;;;;;;;76.50;52.75;;;;;4.74;75.07;102930.28;5117799;27;45588;-80
2024/01/27 06:28:34;;;;;;;;;61.25;49.75;;;;;4.69;74.82;102921.47;5098583;27;46482;-81
2024/01/27 06:31:01;;;;;;;;;63.00;48.00;;;;;4.78;73.72;102931.16;5117721;27;45438;-80
2024/01/27 06:33:26;;;;;;;;;73.25;56.75;;;;;4.76;74.07;102933.78;5117280;27;45384;-79
2024/01/27 06:35:51;;;;;;;;;64.25;51.75;;;;;4.72;74.04;102934.66;5117318;27;45305;-81
2024/01/27 06:38:16;;;;;;;;;70.00;54.25;;;;;4.72;74.11;102927.63;5116726;27;52221;-80
2024/01/27 06:40:42;;;;;;;;;67.25;53.50;;;;;4.72;74.06;102932.91;5117321;27;45235;-81
2024/01/27 06:43:07;;;;;;;;;67.75;51.25;;;;;4.60;73.94;102916.13;5099439;27;45360;-81
2024/01/27 06:45:33;;;;;;;;;65.50;52.00;;;;;4.62;74.65;102931.06;5117075;27;45332;-81
2024/01/27 06:47:58;;;;;;;;;64.25;52.25;;;;;4.52;73.79;102916.06;5117148;27;45400;-79
2024/01/27 06:50:23;;;;;;;;;66.75;54.50;;;;;4.50;74.24;102909.03;5116734;27;45297;-81
2024/01/27 06:52:48;;;;;;;;;67.50;51.50;;;;;4.64;74.17;102929.31;5097852;27;60127;-83
2024/01/27 06:55:14;;;;;;;;;62.75;51.00;;;;;4.76;74.54;102938.19;5117264;27;45305;-82
2024/01/27 06:57:40;;;;;;;;;61.25;50.75;;;;;4.78;74.29;102944.34;5117072;27;47291;-82
2024/01/27 07:00:06;;;;;;;;;62.75;50.00;;;;;4.80;73.61;102932.03;5116824;27;45545;-79
2024/01/27 07:02:32;;;;;;;;;62.50;50.25;;;;;4.63;74.32;102903.84;5122410;27;45527;-82
2024/01/27 07:04:57;;;;;;;;;60.75;47.25;;;;;4.82;74.69;102939.13;5121167;27;47074;-81
2024/01/27 07:07:27;;;;;;;;;54.50;47.00;;;;;4.85;74.76;102932.97;5118335;27;46176;-87
2024/01/27 07:09:55;;;;;;;;;49.25;42.75;;;;;4.86;74.19;102916.28;5132473;27;45436;-82
2024/01/27 07:12:20;;;;;;;;;56.25;44.50;;;;;4.90;74.64;102924.19;5126172;27;45245;-84
2024/01/27 07:14:45;;;;;;;;;42.25;31.50;;;;;4.96;73.71;102920.72;5107278;27;45279;-83
2024/01/27 07:17:11;;;;;;;;;38.00;33.00;;;;;4.84;74.23;102903.09;5135858;27;45568;-87
2024/01/27 07:19:36;;;;;;;;;64.00;49.25;;;;;4.95;74.12;102918.97;5125792;27;45606;-80
2024/01/27 07:22:03;;;;;;;;;56.75;47.00;;;;;5.01;73.30;102930.41;5142126;27;46003;-84
2024/01/27 07:24:29;;;;;;;;;65.50;52.00;;;;;4.84;73.26;102915.38;5131485;27;45378;-83
2024/01/27 07:26:54;;;;;;;;;63.00;52.00;;;;;4.92;73.53;102934.75;5126310;27;46352;-83
2024/01/27 07:29:20;;;;;;;;;58.00;48.00;;;;;4.87;74.03;102945.28;5136986;27;45446;-84
2024/01/27 07:31:45;;;;;;;;;66.75;52.00;;;;;4.84;74.02;102942.63;5124865;27;45431;-83
2024/01/27 07:34:11;;;;;;;;;63.00;48.50;;;;;4.74;73.79;102940.81;5134272;27;45650;-84
2024/01/27 07:36:36;;;;;;;;;70.00;55.00;;;;;4.68;73.49;102940.75;5125540;27;46118;-86
2024/01/27 07:39:01;;;;;;;;;62.25;50.50;;;;;4.73;73.47;102950.47;5137426;27;45243;-85
2024/01/27 07:41:27;;;;;;;;;56.25;47.25;;;;;4.71;73.73;102946.97;5128639;27;45237;-83
2024/01/27 07:43:54;;;;;;;;;57.75;48.00;;;;;4.69;73.33;102942.56;5131444;27;45483;-89
2024/01/27 07:46:22;;;;;;;;;62.50;47.50;;;;;4.69;73.80;102950.47;5141322;27;45245;-84
2024/01/27 07:48:48;;;;;;;;;50.75;45.00;;;;;4.58;73.93;102945.13;5129175;27;45585;-83
2024/01/27 07:51:14;;;;;;;;;52.75;42.50;;;;;4.61;73.69;102947.78;5136365;27;45426;-83
2024/01/27 07:53:39;;;;;;;;;63.25;47.50;;;;;4.70;74.00;102950.47;5123226;27;45392;-87
2024/01/27 07:56:05;;;;;;;;;51.75;45.00;;;;;4.83;73.82;102945.28;5130167;27;45237;-85
2024/01/27 07:58:30;;;;;;;;;55.50;46.50;;;;;4.89;73.02;102945.28;5130158;27;45502;-83
2024/01/27 08:00:56;;;;;;;;;56.00;45.50;;;;;4.91;73.10;102939.13;5131815;27;45421;-84
2024/01/27 08:03:21;;;;;;;;;62.50;51.00;;;;;4.94;72.65;102940.91;5123444;27;45529;-82
2024/01/27 08:05:46;;;;;;;;;61.25;48.50;;;;;4.89;72.50;102918.91;5136968;27;45625;-81
2024/01/27 08:08:12;;;;;;;;;53.50;44.25;;;;;5.07;73.26;102950.63;5127672;27;45356;-83
2024/01/27 08:10:37;;;;;;;;;58.00;49.00;;;;;5.12;72.26;102954.19;5128557;27;45234;-82
2024/01/27 08:13:03;;;;;;;;;51.75;44.00;;;;;5.06;72.53;102934.81;5127913;27;45461;-83
2024/01/27 08:15:28;;;;;;;;;46.50;39.00;;;;;5.24;72.73;102959.50;5136042;27;46346;-82
2024/01/27 08:17:53;;;;;;;;;29.50;24.75;;;;;5.40;71.22;102960.44;5124052;27;45341;-85
2024/01/27 08:20:19;;;;;;;;;31.75;31.75;;;;;5.54;71.50;102955.19;5128703;27;45227;-81
2024/01/27 08:22:44;;;;;;;;;23.50;19.75;;;;;5.61;71.32;102943.78;5132280;27;45275;-85
2024/01/27 08:25:09;;;;;;;;;26.25;26.25;;;;;5.82;69.79;102959.66;5129513;27;45342;-83
2024/01/27 08:27:35;;;;;;;;;37.75;26.50;;;;;5.93;69.63;102956.19;5127749;27;45463;-81
2024/01/27 08:30:00;;;;;;;;;46.75;40.25;;;;;5.89;69.91;102945.59;5138698;27;45391;-82
2024/01/27 08:32:26;;;;;;;;;33.50;30.50;;;;;5.98;69.62;102950.00;5128632;27;45421;-86
2024/01/27 08:34:51;;;;;;;;;47.00;37.00;;;;;6.02;69.46;102938.59;5132839;27;45520;-83
2024/01/27 08:37:20;;;;;;;;;15.00;15.00;;;;;6.04;69.61;102943.88;5126881;27;45370;-90
2024/01/27 08:39:46;;;;;;;;;15.25;15.25;;;;;6.10;69.21;102928.00;5117301;27;45373;-85
2024/01/27 08:42:11;;;;;;;;;16.75;10.25;;;;;6.28;68.72;102933.28;5135480;27;45158;-86
2024/01/27 08:44:43;;;;;;;;;7.75;7.50;;;;;6.37;67.07;102933.25;5134388;27;45720;-91
2024/01/27 08:47:08;;;;;;;;;8.50;6.00;;;;;6.41;66.27;102921.81;5116620;27;45594;-85
2024/01/27 08:49:33;;;;;;;;;10.75;9.50;;;;;6.58;66.11;102942.06;5121263;27;45478;-84
2024/01/27 08:51:59;;;;;;;;;10.00;6.00;;;;;6.43;65.59;102906.84;5132019;27;45584;-81
2024/01/27 08:54:24;;;;;;;;;10.75;6.50;;;;;6.72;65.71;102937.63;5124649;27;45603;-84
2024/01/27 08:56:50;;;;;;;;;11.00;6.00;;;;;6.76;65.26;102945.53;5125872;27;45338;-85
2024/01/27 08:59:15;;;;;;;;;6.50;5.25;;;;;6.61;64.85;102902.38;5114972;27;45321;-81
2024/01/27 09:01:41;;;;;;;;;13.25;7.50;;;;;6.73;64.80;102910.28;5132944;27;45326;-82
2024/01/27 09:04:07;;;;;;;;;9.75;7.00;;;;;6.80;64.75;102912.91;5108781;27;47124;-83
2024/01/27 09:06:32;;;;;;;;;7.25;6.50;;;;;6.97;64.37;102923.41;5116953;27;45462;-85
2024/01/27 09:08:58;;;;;;;;;7.50;6.00;;;;;6.97;64.43;102912.84;5120547;27;61529;-89
2024/01/27 09:11:23;;;;;;;;;6.25;6.25;;;;;7.10;64.08;102925.13;5124794;27;45344;-86
2024/01/27 09:13:51;;;;;;;;;7.50;7.00;;;;;6.90;64.26;102884.66;5141661;27;45342;-83
2024/01/27 09:16:17;;;;;;;;;8.50;8.50;;;;;7.02;63.68;102889.88;5115323;27;45530;-85
2024/01/27 09:18:43;;;;;;;;;7.50;7.50;;;;;7.00;62.82;102891.66;5132380;27;45406;-85
2024/01/27 09:21:09;;;;;;;;;11.25;8.50;;;;;7.18;63.89;102917.16;5131050;27;45568;-85
2024/01/27 09:23:34;;;;;;;;;11.50;9.50;;;;;7.22;63.30;102920.66;5122245;27;45384;-86
2024/01/27 09:26:00;;;;;;;;;10.75;8.25;;;;;7.18;62.95;102921.59;5133138;27;45434;-85
2024/01/27 09:28:25;;;;;;;;;9.00;9.00;;;;;7.17;62.77;102906.59;5112772;27;45335;-86
2024/01/27 09:30:51;;;;;;;;;10.00;10.00;;;;;7.19;62.64;102904.81;5135887;27;45329;-86
2024/01/27 09:33:19;;;;;;;;;11.75;8.25;;;;;7.07;61.51;102896.03;5135472;27;46110;-90
2024/01/27 09:35:46;;;;;;;;;10.75;10.75;;;;;7.20;62.43;102917.16;5122571;27;45419;-87
2024/01/27 09:38:14;;;;;;;;;11.75;11.75;;;;;7.24;61.84;102910.94;5128566;27;45506;-84
2024/01/27 09:40:39;;;;;;;;;13.00;10.75;;;;;7.23;62.05;102880.97;5124638;27;45582;-85
2024/01/27 09:43:05;;;;;;;;;13.75;12.50;;;;;7.28;61.08;102883.56;5119891;27;45385;-86
2024/01/27 09:45:30;;;;;;;;;15.75;13.25;;;;;7.55;61.20;102909.00;5140270;27;46996;-89
2024/01/27 09:47:57;;;;;;;;;15.25;11.00;;;;;7.54;61.04;102892.22;5124465;27;45333;-86
2024/01/27 09:50:27;;;;;;;;;14.25;13.50;;;;;7.67;60.55;102904.50;5113172;27;45596;-88
2024/01/27 09:52:53;;;;;;;;;12.50;12.50;;;;;7.64;60.59;102898.34;5141098;27;45460;-88
2024/01/27 09:55:19;;;;;;;;;15.50;13.00;;;;;7.48;60.32;102852.56;5140060;27;45350;-88
2024/01/27 09:57:46;;;;;;;;;15.00;12.50;;;;;7.88;59.63;102913.19;5138710;27;45534;-90
2024/01/27 10:00:11;;;;;;;;;12.50;11.25;;;;;7.87;58.84;102895.53;5119755;27;45271;-87
2024/01/27 10:02:40;;;;;;;;;13.50;13.50;;;;;8.02;58.78;102900.69;5112123;27;47203;-90
2024/01/27 10:05:07;;;;;;;;;13.25;8.25;;;;;8.00;58.35;102886.59;5105285;27;45812;-88
2024/01/27 10:07:32;;;;;;;;;21.50;14.25;;;;;8.13;57.44;102904.13;5121268;27;45455;-88
2024/01/27 10:09:58;;;;;;;;;17.50;15.50;;;;;8.25;57.24;102914.63;5115530;27;45479;-91
2024/01/27 10:12:26;;;;;;;;;16.00;12.50;;;;;8.27;55.94;102910.19;5120392;27;46186;-89
2024/01/27 10:14:52;;;;;;;;;11.00;11.00;;;;;8.40;55.88;102904.78;5119287;27;45237;-86
2024/01/27 10:17:25;;;;;;;;;11.00;8.50;;;;;8.66;56.16;102939.88;5102474;27;45234;-88
2024/01/27 10:20:01;;;;;;;;;8.00;8.00;;;;;8.47;55.78;102902.09;5123156;27;45542;-88
2024/01/27 10:22:27;;;;;;;;;11.75;10.25;;;;;8.81;55.80;102925.56;5102520;27;46787;-87
2024/01/27 10:24:52;;;;;;;;;10.50;10.50;;;;;8.87;54.78;102909.59;5099922;27;45453;-85
2024/01/27 10:27:18;;;;;;;;;12.25;10.50;;;;;8.97;54.23;102912.97;5109328;27;45341;-86
2024/01/27 10:29:56;;;;;;;;;10.25;10.25;;;;;9.13;53.18;102906.59;5114374;27;46119;-86
2024/01/27 10:32:24;;;;;;;;;15.25;10.50;;;;;9.15;52.97;102883.56;5124166;27;45325;-84
2024/01/27 10:35:01;;;;;;;;;9.00;9.00;;;;;9.52;52.78;102931.75;5134267;27;45452;-85
2024/01/27 10:37:26;;;;;;;;;14.00;11.25;;;;;9.65;51.96;102912.06;5124041;27;45410;-83
2024/01/27 10:40:00;;;;;;;;;13.50;11.00;;;;;9.79;52.01;102903.88;5142147;27;45503;-82
2024/01/27 10:42:28;;;;;;;;;10.75;9.75;;;;;9.89;51.53;102894.81;5138005;27;45527;-84
2024/01/27 10:44:57;;;;;;;;;13.25;12.50;;;;;10.24;51.23;102906.69;5120809;27;45272;-87
2024/01/27 10:47:26;;;;;;;;;10.75;9.00;;;;;10.50;50.82;102915.06;5105652;27;45432;-82
2024/01/27 10:49:55;;;;;;;;;12.25;10.50;;;;;10.71;49.53;102891.63;5142319;27;45400;-89
2024/01/27 10:52:28;;;;;;;;;11.50;10.75;;;;;10.79;49.33;102884.31;5129070;27;44997;-88
2024/01/27 10:54:57;;;;;;;;;9.25;7.75;;;;;11.15;49.29;102893.34;5131646;27;45371;-84
2024/01/27 10:57:26;;;;;;;;;11.50;9.00;;;;;11.05;48.05;102879.34;5148697;27;45511;-84
2024/01/27 10:59:53;;;;;;;;;9.00;9.00;;;;;10.73;46.29;102849.88;5131445;27;45451;-88
2024/01/27 11:02:18;;;;;;;;;12.00;10.00;;;;;10.85;47.02;102890.41;5139659;27;45435;-88
2024/01/27 11:04:47;;;;;;;;;10.25;8.00;;;;;10.84;48.07;102853.19;5137582;27;45349;-86
2024/01/27 11:07:13;;;;;;;;;8.75;8.75;;;;;11.01;47.21;102843.03;5125310;27;45506;-88
2024/01/27 11:09:39;;;;;;;;;12.00;9.50;;;;;11.41;47.46;102884.75;5124726;27;45417;-88
2024/01/27 11:12:06;;;;;;;;;10.50;10.50;;;;;11.21;46.68;102847.94;5112943;27;47054;-87